Time;durP1;ratioP1;P1;durP2;ratioP2;P2;SDS_P1;SDS_P2;PMS_P1;PMS_P2;Temp;Humidity;BMP_temperature;BMP_pressure;BME280_temperature;BME280_humidity;BME280_pressure;Samples;Min_cycle;Max_cycle;Signal;HPM_P1;HPM_P2
2023/11/18 00:01:25;;;;;;;17.40;13.00;;;;;;;1.74;100.00;100488.84;88535;282;137218;-68
2023/11/18 00:03:27;;;;;;;16.20;13.00;;;;;;;1.75;100.00;100493.33;88609;274;22574;-73
2023/11/18 00:05:29;;;;;;;16.30;12.40;;;;;;;1.75;100.00;100494.58;88332;282;137010;-73
2023/11/18 00:07:32;;;;;;;14.40;11.80;;;;;;;1.71;100.00;100496.05;88871;274;22539;-72
2023/11/18 00:09:34;;;;;;;17.70;12.90;;;;;;;1.70;100.00;100494.09;88585;280;137216;-73
2023/11/18 00:11:37;;;;;;;16.20;11.70;;;;;;;1.68;100.00;100493.58;88580;280;22543;-73
2023/11/18 00:13:42;;;;;;;14.70;11.90;;;;;;;1.67;100.00;100498.54;88446;274;137204;-72
2023/11/18 00:15:45;;;;;;;15.60;12.00;;;;;;;1.67;100.00;100491.23;88793;274;22831;-72
2023/11/18 00:17:48;;;;;;;19.50;11.80;;;;;;;1.67;100.00;100497.17;88669;273;137289;-73
2023/11/18 00:19:50;;;;;;;18.90;12.80;;;;;;;1.66;100.00;100501.08;88548;273;22539;-72
2023/11/18 00:21:52;;;;;;;19.70;12.60;;;;;;;1.66;100.00;100499.34;88375;278;138180;-73
2023/11/18 00:23:55;;;;;;;15.40;11.40;;;;;;;1.65;100.00;100499.77;88450;280;23436;-73
2023/11/18 00:25:59;;;;;;;19.20;13.20;;;;;;;1.57;100.00;100485.85;88344;278;138685;-72
2023/11/18 00:28:01;;;;;;;18.50;12.20;;;;;;;1.55;100.00;100479.77;88451;282;24474;-73
2023/11/18 00:30:13;;;;;;;16.10;12.40;;;;;;;1.64;100.00;100495.67;88471;273;23795;-73
2023/11/18 00:32:16;;;;;;;19.10;12.60;;;;;;;1.65;100.00;100495.94;88397;273;137243;-72
2023/11/18 00:34:19;;;;;;;15.60;11.80;;;;;;;1.65;100.00;100506.27;88488;282;22525;-72
2023/11/18 00:36:21;;;;;;;17.40;11.70;;;;;;;1.65;100.00;100503.24;88252;282;137254;-73
2023/11/18 00:38:23;;;;;;;16.00;12.40;;;;;;;1.65;100.00;100512.73;88451;282;24054;-70
2023/11/18 00:40:25;;;;;;;16.60;11.50;;;;;;;1.63;100.00;100504.48;88378;282;137003;-73
2023/11/18 00:42:28;;;;;;;16.10;12.50;;;;;;;1.61;100.00;100504.69;88611;275;22723;-74
2023/11/18 00:44:30;;;;;;;18.20;12.50;;;;;;;1.59;100.00;100503.27;88564;281;137771;-72
2023/11/18 00:46:36;;;;;;;16.40;11.60;;;;;;;1.56;100.00;100495.95;88448;281;22549;-71
2023/11/18 00:48:38;;;;;;;18.10;13.50;;;;;;;1.54;100.00;100497.67;88374;281;137332;-72
2023/11/18 00:50:40;;;;;;;16.80;12.50;;;;;;;1.53;100.00;100499.70;88559;282;24285;-72
2023/11/18 00:52:49;;;;;;;15.50;11.90;;;;;;;1.53;100.00;100495.52;88367;274;136987;-72
2023/11/18 00:54:51;;;;;;;14.90;11.30;;;;;;;1.52;100.00;100494.45;88526;281;22536;-72
2023/11/18 00:56:53;;;;;;;17.70;13.00;;;;;;;1.52;100.00;100492.44;88268;283;138767;-73
2023/11/18 00:58:55;;;;;;;14.70;12.30;;;;;;;1.52;100.00;100489.97;88496;274;25342;-72
2023/11/18 01:00:57;;;;;;;13.70;11.20;;;;;;;1.51;100.00;100490.20;88446;281;137242;-75
2023/11/18 01:03:00;;;;;;;16.00;10.90;;;;;;;1.50;100.00;100484.70;88457;275;22660;-73
2023/11/18 01:05:03;;;;;;;15.70;12.20;;;;;;;1.49;100.00;100478.17;88539;282;137077;-70
2023/11/18 01:07:06;;;;;;;14.60;11.90;;;;;;;1.49;100.00;100481.44;88383;282;22525;-73
2023/11/18 01:09:09;;;;;;;16.60;12.90;;;;;;;1.51;100.00;100479.90;88262;279;137944;-73
2023/11/18 01:11:15;;;;;;;19.70;12.50;;;;;;;1.52;100.00;100482.08;88688;282;22530;-72
2023/11/18 01:13:18;;;;;;;14.30;10.80;;;;;;;1.53;100.00;100482.16;88385;282;137195;-73
2023/11/18 01:15:20;;;;;;;15.80;12.20;;;;;;;1.54;100.00;100485.63;88470;282;22532;-72
2023/11/18 01:17:22;;;;;;;17.70;12.00;;;;;;;1.54;100.00;100482.98;88319;282;137011;-75
2023/11/18 01:19:24;;;;;;;17.70;12.50;;;;;;;1.53;100.00;100482.52;89014;282;22563;-71
2023/11/18 01:21:27;;;;;;;15.90;12.60;;;;;;;1.52;100.00;100481.90;88392;278;137197;-72
2023/11/18 01:23:29;;;;;;;14.40;11.10;;;;;;;1.52;100.00;100476.84;88537;273;22541;-73
2023/11/18 01:25:31;;;;;;;16.60;12.80;;;;;;;1.52;100.00;100479.49;88411;274;136990;-72
2023/11/18 01:27:33;;;;;;;15.10;11.50;;;;;;;1.51;100.00;100480.96;88581;279;22553;-74
2023/11/18 01:29:37;;;;;;;15.70;12.20;;;;;;;1.51;100.00;100480.43;88236;283;137370;-72
2023/11/18 01:31:41;;;;;;;15.20;12.40;;;;;;;1.52;100.00;100482.27;88425;282;24037;-71
2023/11/18 01:33:55;;;;;;;14.80;11.80;;;;;;;1.52;100.00;100480.88;88849;282;137083;-73
2023/11/18 01:35:57;;;;;;;17.40;12.30;;;;;;;1.51;100.00;100479.05;88562;282;24056;-73
2023/11/18 01:37:58;;;;;;;15.10;12.10;;;;;;;1.49;100.00;100486.89;88373;274;137331;-70
2023/11/18 01:40:05;;;;;;;16.10;13.00;;;;;;;1.47;100.00;100483.00;88455;282;24031;-73
2023/11/18 01:42:07;;;;;;;15.70;12.10;;;;;;;1.48;100.00;100482.58;88669;281;22541;-71
2023/11/18 01:44:09;;;;;;;18.00;12.30;;;;;;;1.50;100.00;100484.05;88376;281;137364;-75
2023/11/18 01:46:12;;;;;;;16.20;12.70;;;;;;;1.51;100.00;100485.14;88366;282;22963;-74
2023/11/18 01:48:15;;;;;;;18.50;13.00;;;;;;;1.54;100.00;100486.16;88235;282;137310;-72
2023/11/18 01:50:18;;;;;;;16.90;11.90;;;;;;;1.55;100.00;100489.89;88925;281;22528;-72
2023/11/18 01:52:21;;;;;;;18.30;12.20;;;;;;;1.52;100.00;100481.71;88361;281;137855;-72
2023/11/18 01:54:23;;;;;;;14.60;11.70;;;;;;;1.56;100.00;100482.10;88371;281;22533;-73
2023/11/18 01:56:27;;;;;;;16.90;12.10;;;;;;;1.58;100.00;100488.25;88348;281;137344;-72
2023/11/18 01:58:30;;;;;;;19.80;12.80;;;;;;;1.58;100.00;100485.84;88160;283;22632;-74
2023/11/18 02:00:35;;;;;;;17.30;13.00;;;;;;;1.59;100.00;100481.37;88248;282;137227;-71
2023/11/18 02:02:37;;;;;;;15.80;12.50;;;;;;;1.58;100.00;100482.80;88229;282;24099;-74
2023/11/18 02:04:40;;;;;;;19.60;12.80;;;;;;;1.62;100.00;100490.89;88072;282;136901;-72
2023/11/18 02:06:44;;;;;;;17.30;12.70;;;;;;;1.64;100.00;100496.71;88309;280;22739;-68
2023/11/18 02:08:47;;;;;;;16.50;12.70;;;;;;;1.65;100.00;100496.23;88609;281;138198;-71
2023/11/18 02:10:57;;;;;;;17.00;13.10;;;;;;;1.65;100.00;100497.80;88409;282;22527;-72
2023/11/18 02:13:25;;;;;;;15.70;11.40;;;;;;;1.64;100.00;100494.36;88307;277;137155;-71
2023/11/18 02:15:29;;;;;;;14.30;11.90;;;;;;;1.63;100.00;100498.16;88537;282;22810;-71
2023/11/18 02:17:33;;;;;;;17.60;13.40;;;;;;;1.63;100.00;100496.65;88282;282;136968;-72
2023/11/18 02:19:36;;;;;;;17.50;13.40;;;;;;;1.62;100.00;100490.88;88863;284;22541;-71
2023/11/18 02:21:38;;;;;;;15.50;11.70;;;;;;;1.55;100.00;100481.46;88145;282;544429;-71
2023/11/18 02:23:42;;;;;;;15.50;12.10;;;;;;;1.63;100.00;100498.21;88606;282;25091;-72
2023/11/18 02:25:47;;;;;;;17.70;12.90;;;;;;;1.63;100.00;100498.00;88435;282;137195;-72
2023/11/18 02:27:49;;;;;;;17.40;12.70;;;;;;;1.63;100.00;100497.34;88550;281;24854;-72
2023/11/18 02:29:52;;;;;;;18.60;12.80;;;;;;;1.63;100.00;100497.16;88418;275;137148;-70
2023/11/18 02:32:01;;;;;;;16.40;12.40;;;;;;;1.62;100.00;100498.59;88273;284;22540;-71
2023/11/18 02:34:16;;;;;;;21.50;13.00;;;;;;;1.62;100.00;100500.02;88492;282;24190;-70
2023/11/18 02:36:26;;;;;;;19.60;13.20;;;;;;;1.62;100.00;100494.61;88291;275;138721;-70
2023/11/18 02:38:37;;;;;;;16.30;13.20;;;;;;;1.63;100.00;100501.30;88804;274;22619;-68
2023/11/18 02:40:43;;;;;;;18.30;12.80;;;;;;;1.64;100.00;100496.02;88606;280;137204;-76
2023/11/18 02:42:48;;;;;;;17.90;13.20;;;;;;;1.63;100.00;100498.17;88494;278;24055;-72
2023/11/18 02:44:59;;;;;;;16.90;13.50;;;;;;;1.64;100.00;100499.50;88347;275;137236;-72
2023/11/18 02:47:05;;;;;;;15.80;13.00;;;;;;;1.64;100.00;100497.94;89313;278;22540;-72
2023/11/18 02:49:07;;;;;;;;;;;;;;;1.63;100.00;100497.45;88433;281;136874;-73
2023/11/18 02:51:09;;;;;;;14.10;10.40;;;;;;;1.63;100.00;100496.76;88452;281;22537;-71
2023/11/18 02:53:11;;;;;;;15.30;11.70;;;;;;;1.61;100.00;100492.23;88336;278;138788;-70
2023/11/18 02:55:13;;;;;;;16.90;12.80;;;;;;;1.60;100.00;100498.27;88461;278;24018;-70
2023/11/18 02:57:15;;;;;;;17.00;12.40;;;;;;;1.59;100.00;100502.02;88729;274;137396;-71
2023/11/18 02:59:17;;;;;;;18.00;13.00;;;;;;;1.58;100.00;100499.95;88436;275;24017;-73
2023/11/18 03:01:19;;;;;;;15.60;12.00;;;;;;;1.57;100.00;100499.52;88227;282;137873;-71
2023/11/18 03:03:21;;;;;;;16.80;12.90;;;;;;;1.59;100.00;100497.32;88546;278;24719;-73
2023/11/18 03:05:26;;;;;;;21.00;12.00;;;;;;;1.52;100.00;100481.71;88328;278;137378;-71
2023/11/18 03:07:29;;;;;;;18.30;13.00;;;;;;;1.61;100.00;100488.69;88444;274;22780;-74
2023/11/18 03:09:34;;;;;;;13.10;10.90;;;;;;;1.63;100.00;100497.34;88322;274;137114;-72
2023/11/18 03:11:38;;;;;;;19.40;12.40;;;;;;;1.62;100.00;100496.14;88370;274;22534;-71
2023/11/18 03:13:41;;;;;;;17.70;13.50;;;;;;;1.62;100.00;100494.91;88391;281;138099;-71
2023/11/18 03:15:43;;;;;;;15.10;11.60;;;;;;;1.63;100.00;100500.46;88631;273;22531;-72
2023/11/18 03:17:48;;;;;;;17.50;12.70;;;;;;;1.63;100.00;100501.10;88299;281;137042;-72
2023/11/18 03:19:50;;;;;;;16.90;13.20;;;;;;;1.64;100.00;100499.48;90500;282;23719;-74
2023/11/18 03:21:53;;;;;;;19.10;13.60;;;;;;;1.67;100.00;100505.77;89609;281;136800;-76
2023/11/18 03:23:55;;;;;;;19.80;13.80;;;;;;;1.68;100.00;100506.00;88593;282;24169;-71
2023/11/18 03:25:58;;;;;;;16.60;12.50;;;;;;;1.68;100.00;100508.06;88989;281;136877;-73
2023/11/18 03:28:01;;;;;;;17.80;12.20;;;;;;;1.59;100.00;100490.45;88668;273;24069;-72
2023/11/18 03:30:04;;;;;;;17.60;12.80;;;;;;;1.69;100.00;100510.95;88416;282;22551;-74
2023/11/18 03:32:06;;;;;;;15.70;12.00;;;;;;;1.69;100.00;100510.16;88443;282;137356;-72
2023/11/18 03:34:08;;;;;;;17.80;12.10;;;;;;;1.67;100.00;100505.06;88529;282;25264;-72
2023/11/18 03:36:12;;;;;;;14.50;12.80;;;;;;;1.65;100.00;100502.23;88402;281;137236;-70
2023/11/18 03:38:14;;;;;;;17.80;13.60;;;;;;;1.64;100.00;100505.34;88718;273;22534;-72
2023/11/18 03:40:16;;;;;;;16.40;12.50;;;;;;;1.62;100.00;100506.83;88445;273;137160;-73
2023/11/18 03:42:18;;;;;;;20.30;12.50;;;;;;;1.61;100.00;100505.02;88507;277;22526;-71
2023/11/18 03:44:21;;;;;;;16.90;12.70;;;;;;;1.60;100.00;100516.44;88372;275;138861;-73
2023/11/18 03:46:23;;;;;;;16.80;12.10;;;;;;;1.59;100.00;100507.59;88401;278;22543;-72
2023/11/18 03:48:25;;;;;;;16.60;11.40;;;;;;;1.58;100.00;100507.55;88269;279;137277;-71
2023/11/18 03:50:27;;;;;;;15.20;11.70;;;;;;;1.57;100.00;100500.27;88456;273;26063;-69
2023/11/18 03:52:29;;;;;;;16.50;12.40;;;;;;;1.48;100.00;100494.13;88406;277;137963;-68
2023/11/18 03:54:31;;;;;;;17.20;12.40;;;;;;;1.47;100.00;100496.55;88426;281;24963;-71
2023/11/18 03:56:33;;;;;;;16.80;11.60;;;;;;;1.51;100.00;100505.27;88339;278;137071;-72
2023/11/18 03:58:35;;;;;;;15.60;12.00;;;;;;;1.50;100.00;100510.27;88406;274;23714;-71
2023/11/18 04:00:37;;;;;;;14.10;11.20;;;;;;;1.50;100.00;100510.31;88192;275;137081;-70
2023/11/18 04:02:39;;;;;;;15.00;12.00;;;;;;;1.49;100.00;100510.38;88415;278;22530;-70
2023/11/18 04:04:42;;;;;;;17.40;13.50;;;;;;;1.39;100.00;100495.73;88287;282;137241;-71
2023/11/18 04:06:46;;;;;;;13.90;11.70;;;;;;;1.47;100.00;100512.41;88372;274;24021;-70
2023/11/18 04:08:48;;;;;;;18.70;13.50;;;;;;;1.47;100.00;100520.84;90359;279;138095;-70
2023/11/18 04:10:50;;;;;;;18.50;13.90;;;;;;;1.46;100.00;100519.16;88383;280;25284;-71
2023/11/18 04:12:52;;;;;;;16.20;12.50;;;;;;;1.45;100.00;100521.52;88313;282;137193;-70
2023/11/18 04:14:54;;;;;;;17.60;13.10;;;;;;;1.45;100.00;100523.68;88364;283;24034;-70
2023/11/18 04:16:57;;;;;;;17.50;12.90;;;;;;;1.43;100.00;100524.68;88175;275;137552;-71
2023/11/18 04:18:59;;;;;;;16.80;12.80;;;;;;;1.42;100.00;100528.24;88636;274;22538;-72
2023/11/18 04:21:03;;;;;;;17.80;13.80;;;;;;;1.41;100.00;100532.35;88377;282;136797;-73
2023/11/18 04:23:05;;;;;;;17.20;12.80;;;;;;;1.42;100.00;100534.23;88582;273;22524;-69
2023/11/18 04:25:10;;;;;;;22.70;13.60;;;;;;;1.39;100.00;100537.40;88390;281;136926;-72
2023/11/18 04:27:12;;;;;;;17.00;12.90;;;;;;;1.36;100.00;100534.30;88499;282;22538;-71
2023/11/18 04:29:15;;;;;;;17.50;14.00;;;;;;;1.33;100.00;100536.70;88401;273;137196;-72
2023/11/18 04:31:17;;;;;;;17.10;12.00;;;;;;;1.31;100.00;100535.61;88486;280;24121;-71
2023/11/18 04:33:19;;;;;;;17.20;12.70;;;;;;;1.30;100.00;100544.47;88335;275;136955;-69
2023/11/18 04:35:22;;;;;;;17.40;13.20;;;;;;;1.29;100.00;100541.37;88404;282;22537;-72
2023/11/18 04:37:24;;;;;;;15.00;12.10;;;;;;;1.29;100.00;100543.14;88500;274;138760;-71
2023/11/18 04:39:28;;;;;;;18.80;14.30;;;;;;;1.29;100.00;100544.55;88529;273;25704;-72
2023/11/18 04:41:31;;;;;;;19.00;13.90;;;;;;;1.28;100.00;100549.20;88172;275;137718;-71
2023/11/18 04:43:33;;;;;;;16.20;14.00;;;;;;;1.24;100.00;100544.60;88557;275;22553;-73
2023/11/18 04:45:46;;;;;;;19.80;14.00;;;;;;;1.22;100.00;100547.54;88367;280;137330;-71
2023/11/18 04:47:50;;;;;;;16.20;13.10;;;;;;;1.20;100.00;100547.93;88443;273;22635;-71
2023/11/18 04:49:52;;;;;;;16.60;13.30;;;;;;;1.17;100.00;100554.40;88342;274;137275;-70
2023/11/18 04:51:54;;;;;;;16.00;13.50;;;;;;;1.15;100.00;100551.73;88606;274;22529;-72
2023/11/18 04:53:56;;;;;;;18.20;14.30;;;;;;;1.14;100.00;100555.39;88367;280;137045;-73
2023/11/18 04:55:59;;;;;;;18.30;13.50;;;;;;;1.12;100.00;100566.76;88477;273;22528;-71
2023/11/18 04:58:01;;;;;;;15.20;11.60;;;;;;;1.08;100.00;100568.74;88690;278;136983;-71
2023/11/18 05:00:10;;;;;;;19.10;13.70;;;;;;;1.04;100.00;100565.58;88423;274;23079;-72
2023/11/18 05:02:12;;;;;;;18.60;13.70;;;;;;;1.02;100.00;100575.73;88459;273;24591;-73
2023/11/18 05:04:15;;;;;;;21.00;13.50;;;;;;;1.00;100.00;100569.78;88430;273;137242;-73
2023/11/18 05:06:20;;;;;;;24.00;14.30;;;;;;;0.99;100.00;100576.53;88515;275;22534;-69
2023/11/18 05:08:22;;;;;;;17.60;13.30;;;;;;;0.96;100.00;100573.73;88366;274;138627;-71
2023/11/18 05:10:24;;;;;;;18.50;13.60;;;;;;;0.93;100.00;100574.31;88370;276;22540;-70
2023/11/18 05:12:29;;;;;;;16.20;12.20;;;;;;;0.90;100.00;100582.09;87963;274;137070;-71
2023/11/18 05:14:32;;;;;;;17.60;13.40;;;;;;;0.86;100.00;100581.52;88416;274;25248;-73
2023/11/18 05:16:34;;;;;;;17.30;14.20;;;;;;;0.85;100.00;100572.70;88230;273;137187;-72
2023/11/18 05:18:36;;;;;;;16.10;13.80;;;;;;;0.84;100.00;100573.77;88098;273;24753;-73
2023/11/18 05:20:38;;;;;;;17.40;14.70;;;;;;;0.85;100.00;100581.59;87961;273;138015;-72
2023/11/18 05:22:41;;;;;;;17.00;13.10;;;;;;;0.87;100.00;100583.91;88025;274;22532;-73
2023/11/18 05:24:44;;;;;;;17.20;13.80;;;;;;;0.81;100.00;100577.14;87975;273;137211;-70
2023/11/18 05:26:46;;;;;;;17.70;13.10;;;;;;;0.87;100.00;100592.61;89920;273;22537;-72
2023/11/18 05:28:48;;;;;;;18.80;14.40;;;;;;;0.87;100.00;100583.00;87958;273;139055;-72
2023/11/18 05:30:52;;;;;;;17.70;13.10;;;;;;;0.89;100.00;100586.73;88146;273;22555;-71
2023/11/18 05:32:54;;;;;;;17.20;13.40;;;;;;;0.89;100.00;100589.82;88210;273;138580;-72
2023/11/18 05:34:57;;;;;;;17.20;13.30;;;;;;;0.91;100.00;100598.63;88126;273;22546;-72
2023/11/18 05:37:00;;;;;;;17.10;12.70;;;;;;;0.92;100.00;100602.36;88018;273;137228;-71
2023/11/18 05:39:05;;;;;;;18.60;13.70;;;;;;;0.94;100.00;100598.93;88070;273;22537;-73
2023/11/18 05:41:16;;;;;;;17.40;13.60;;;;;;;0.95;100.00;100593.58;87985;274;136949;-72
2023/11/18 05:43:21;;;;;;;18.50;14.00;;;;;;;0.97;100.00;100603.73;89216;274;22540;-70
2023/11/18 05:45:31;;;;;;;22.40;13.90;;;;;;;1.01;100.00;100608.38;89322;273;137784;-71
2023/11/18 05:47:34;;;;;;;16.80;12.80;;;;;;;1.03;100.00;100609.64;89097;273;22520;-71
2023/11/18 05:49:37;;;;;;;18.90;13.80;;;;;;;0.95;100.00;100603.42;88072;273;137000;-71
2023/11/18 05:51:40;;;;;;;17.20;12.80;;;;;;;1.05;100.00;100624.86;88098;273;22538;-73
2023/11/18 05:53:45;;;;;;;15.60;12.10;;;;;;;1.04;100.00;100637.58;88109;273;137207;-75
2023/11/18 05:55:47;;;;;;;13.90;11.90;;;;;;;1.01;100.00;100632.32;88920;273;25168;-72
2023/11/18 05:57:49;;;;;;;15.20;11.60;;;;;;;0.98;100.00;100632.59;88111;273;136875;-74
2023/11/18 05:59:51;;;;;;;15.50;11.80;;;;;;;0.95;100.00;100638.55;88116;274;22549;-79
2023/11/18 06:01:53;;;;;;;14.90;12.00;;;;;;;0.91;100.00;100636.27;88012;273;136811;-72
2023/11/18 06:03:56;;;;;;;16.80;12.50;;;;;;;0.89;100.00;100639.38;88113;273;22550;-73
2023/11/18 06:05:59;;;;;;;15.60;13.30;;;;;;;0.88;100.00;100645.20;88035;274;136640;-72
2023/11/18 06:08:01;;;;;;;15.90;11.40;;;;;;;0.88;100.00;100651.16;88109;274;24246;-67
2023/11/18 06:10:05;;;;;;;15.70;11.30;;;;;;;0.87;100.00;100656.48;88670;273;22554;-69
2023/11/18 06:12:10;;;;;;;14.10;11.80;;;;;;;0.85;100.00;100656.98;88206;277;137210;-72
2023/11/18 06:14:12;;;;;;;14.80;12.10;;;;;;;0.84;100.00;100658.12;89080;274;22589;-72
2023/11/18 06:16:16;;;;;;;13.90;11.70;;;;;;;0.84;100.00;100650.83;88059;275;138355;-73
2023/11/18 06:18:19;;;;;;;14.00;11.30;;;;;;;0.85;100.00;100651.12;88908;275;24017;-71
2023/11/18 06:20:23;;;;;;;15.70;12.50;;;;;;;0.86;100.00;100662.55;88200;274;137295;-74
2023/11/18 06:24:28;;;;;;;16.10;12.30;;;;;;;0.86;100.00;100651.19;87818;297;604878;-73
2023/11/18 06:26:30;;;;;;;17.60;11.40;;;;;;;0.88;100.00;100665.71;88808;276;25637;-74
2023/11/18 06:28:33;;;;;;;17.70;13.10;;;;;;;0.86;100.00;100653.09;88790;275;136299;-70
2023/11/18 06:30:36;;;;;;;18.00;12.80;;;;;;;0.87;100.00;100659.67;88907;275;22553;-74
2023/11/18 06:32:38;;;;;;;15.30;12.20;;;;;;;0.88;100.00;100662.55;88752;282;141116;-72
2023/11/18 06:34:40;;;;;;;13.30;10.70;;;;;;;0.90;100.00;100667.13;88237;275;24128;-74
2023/11/18 06:36:42;;;;;;;13.10;11.10;;;;;;;0.90;100.00;100668.14;88650;277;136030;-74
2023/11/18 06:38:46;;;;;;;15.60;10.80;;;;;;;0.91;100.00;100668.25;87820;275;706660;-71
2023/11/18 06:40:52;;;;;;;15.10;11.50;;;;;;;0.93;100.00;100665.46;89066;273;140630;-71
2023/11/18 06:43:01;;;;;;;14.10;11.60;;;;;;;0.96;100.00;100670.86;88435;273;22893;-72
2023/11/18 06:45:05;;;;;;;13.90;11.10;;;;;;;0.97;100.00;100666.05;88249;278;136777;-70
2023/11/18 06:47:07;;;;;;;15.30;12.50;;;;;;;0.95;100.00;100663.89;88415;277;24112;-71
2023/11/18 06:49:16;;;;;;;17.00;13.00;;;;;;;0.98;100.00;100664.44;88489;274;136331;-75
2023/11/18 06:51:17;;;;;;;16.50;12.20;;;;;;;1.01;100.00;100668.56;89146;278;22777;-73
2023/11/18 06:53:20;;;;;;;14.80;11.60;;;;;;;1.04;100.00;100671.13;88918;274;136354;-71
2023/11/18 06:55:22;;;;;;;15.50;11.30;;;;;;;1.07;100.00;100674.77;88571;273;26260;-73
2023/11/18 06:57:24;;;;;;;15.00;12.50;;;;;;;1.10;100.00;100680.81;88399;281;136914;-72
2023/11/18 06:59:26;;;;;;;14.80;11.10;;;;;;;1.12;100.00;100687.80;88241;275;22524;-72
2023/11/18 07:01:30;;;;;;;13.00;11.50;;;;;;;1.14;100.00;100679.63;88258;273;138441;-72
2023/11/18 07:03:33;;;;;;;14.40;11.60;;;;;;;1.15;100.00;100676.05;90745;281;22499;-73
2023/11/18 07:05:35;;;;;;;16.30;13.40;;;;;;;1.17;100.00;100676.96;88234;277;136779;-75
2023/11/18 07:07:37;;;;;;;13.80;10.50;;;;;;;1.22;100.00;100688.98;88417;278;22597;-72
2023/11/18 07:09:40;;;;;;;13.40;10.90;;;;;;;1.22;100.00;100689.89;88311;281;137456;-72
2023/11/18 07:11:43;;;;;;;13.10;11.20;;;;;;;1.20;100.00;100688.60;88389;282;25173;-74
2023/11/18 07:13:45;;;;;;;13.20;10.50;;;;;;;1.19;100.00;100687.86;88424;277;138226;-74
2023/11/18 07:15:47;;;;;;;13.70;11.60;;;;;;;1.17;100.00;100681.85;88456;274;22816;-76
2023/11/18 07:17:50;;;;;;;11.80;10.20;;;;;;;1.17;100.00;100686.79;88246;274;138049;-74
2023/11/18 07:19:58;;;;;;;12.10;10.80;;;;;;;1.17;100.00;100689.42;88388;281;22542;-74
2023/11/18 07:22:06;;;;;;;14.10;11.30;;;;;;;1.17;100.00;100681.85;88285;273;136635;-74
2023/11/18 07:24:08;;;;;;;14.00;11.40;;;;;;;1.18;100.00;100687.20;88470;274;137163;-73
2023/11/18 07:26:10;;;;;;;12.40;10.60;;;;;;;1.20;100.00;100675.85;88418;283;25171;-69
2023/11/18 07:28:14;;;;;;;15.20;11.90;;;;;;;1.23;100.00;100677.05;88077;275;136380;-72
2023/11/18 07:30:18;;;;;;;14.90;11.50;;;;;;;1.26;100.00;100678.17;88626;281;24700;-81
2023/11/18 07:32:20;;;;;;;14.20;11.00;;;;;;;1.29;100.00;100676.52;88208;280;136388;-69
2023/11/18 07:34:23;;;;;;;13.70;11.40;;;;;;;1.31;100.00;100679.20;88393;281;24014;-72
2023/11/18 07:36:25;;;;;;;12.30;10.70;;;;;;;1.32;100.00;100683.45;88356;278;136699;-77
2023/11/18 07:38:27;;;;;;;12.70;10.40;;;;;;;1.33;100.00;100692.33;88434;281;22515;-73
2023/11/18 07:40:29;;;;;;;13.50;10.80;;;;;;;1.35;100.00;100694.95;88167;274;136663;-73
2023/11/18 07:42:34;;;;;;;14.00;11.60;;;;;;;1.36;100.00;100684.40;89090;281;25213;-72
2023/11/18 07:44:38;;;;;;;13.60;11.10;;;;;;;1.39;100.00;100687.86;88346;281;137103;-68
2023/11/18 07:46:42;;;;;;;11.30;9.70;;;;;;;1.42;100.00;100696.24;88453;279;22565;-74
2023/11/18 07:48:45;;;;;;;10.80;9.00;;;;;;;1.45;100.00;100701.26;88624;275;137663;-76
2023/11/18 07:50:47;;;;;;;11.10;9.70;;;;;;;1.45;100.00;100694.55;88171;276;23025;-74
2023/11/18 07:52:50;;;;;;;12.40;11.20;;;;;;;1.46;100.00;100693.82;88199;284;136456;-72
2023/11/18 07:54:52;;;;;;;17.10;11.30;;;;;;;1.44;100.00;100687.98;88518;281;23972;-69
2023/11/18 07:56:57;;;;;;;13.80;11.00;;;;;;;1.43;100.00;100690.52;88197;274;137011;-69
2023/11/18 07:58:59;;;;;;;11.60;9.30;;;;;;;1.43;100.00;100698.23;88476;278;22527;-71
2023/11/18 08:01:03;;;;;;;12.50;11.00;;;;;;;1.41;100.00;100698.19;88308;278;139431;-70
2023/11/18 08:03:13;;;;;;;12.40;10.50;;;;;;;1.39;100.00;100695.44;88418;274;24060;-68
2023/11/18 08:05:16;;;;;;;12.00;10.30;;;;;;;1.39;100.00;100700.11;88758;274;136635;-72
2023/11/18 08:07:19;;;;;;;15.00;11.60;;;;;;;1.39;100.00;100707.67;88683;275;22533;-70
2023/11/18 08:09:25;;;;;;;11.30;10.00;;;;;;;1.40;100.00;100705.65;88394;278;138168;-74
2023/11/18 08:11:27;;;;;;;11.40;10.30;;;;;;;1.44;100.00;100705.17;88930;280;22475;-68
2023/11/18 08:13:29;;;;;;;12.20;9.80;;;;;;;1.46;100.00;100701.35;88653;280;136798;-65
2023/11/18 08:15:31;;;;;;;12.00;10.00;;;;;;;1.47;100.00;100701.23;88512;275;22537;-66
2023/11/18 08:17:33;;;;;;;10.90;9.80;;;;;;;1.49;100.00;100720.90;88756;281;136899;-67
2023/11/18 08:19:35;;;;;;;10.40;8.90;;;;;;;1.42;100.00;100710.76;88569;274;24087;-68
2023/11/18 08:21:40;;;;;;;11.00;9.10;;;;;;;1.51;100.00;100724.91;88362;278;136620;-71
2023/11/18 08:23:42;;;;;;;10.90;8.60;;;;;;;1.51;100.00;100721.61;89016;281;24049;-73
2023/11/18 08:25:46;;;;;;;12.70;9.40;;;;;;;1.51;100.00;100727.21;88388;274;136506;-73
2023/11/18 08:27:48;;;;;;;12.80;8.60;;;;;;;1.50;100.00;100726.90;88623;274;26779;-69
2023/11/18 08:29:50;;;;;;;13.80;9.30;;;;;;;1.51;100.00;100720.52;88282;277;136631;-74
2023/11/18 08:31:52;;;;;;;10.40;9.00;;;;;;;1.55;100.00;100725.09;88856;281;25209;-76
2023/11/18 08:33:54;;;;;;;11.10;9.10;;;;;;;1.60;100.00;100731.56;88741;276;137330;-70
2023/11/18 08:35:56;;;;;;;10.50;9.40;;;;;;;1.63;100.00;100733.05;88819;274;25193;-72
2023/11/18 08:38:00;;;;;;;12.20;8.30;;;;;;;1.65;100.00;100740.27;88476;273;136436;-68
2023/11/18 08:40:20;;;;;;;10.00;8.60;;;;;;;1.62;100.00;100727.19;88399;274;23026;-71
2023/11/18 08:42:22;;;;;;;9.40;8.10;;;;;;;1.72;100.00;100734.85;88594;275;22544;-69
2023/11/18 08:45:02;;;;;;;11.50;9.60;;;;;;;1.74;100.00;100750.83;88371;274;24073;-69
2023/11/18 08:47:08;;;;;;;9.50;8.40;;;;;;;1.81;100.00;100747.48;88121;274;22602;-67
2023/11/18 08:49:10;;;;;;;9.90;8.90;;;;;;;1.86;100.00;100755.98;88550;274;136792;-68
2023/11/18 08:51:16;;;;;;;8.50;7.60;;;;;;;1.91;100.00;100756.11;88536;274;25160;-69
2023/11/18 08:53:18;;;;;;;11.00;9.00;;;;;;;1.90;100.00;100731.84;88286;275;136512;-68
2023/11/18 08:55:21;;;;;;;10.70;8.20;;;;;;;2.03;100.00;100732.23;88199;274;22708;-67
2023/11/18 08:57:25;;;;;;;12.60;9.10;;;;;;;2.03;100.00;100722.00;88367;274;136882;-67
2023/11/18 08:59:27;;;;;;;9.60;7.60;;;;;;;2.20;100.00;100738.02;88348;278;25197;-65
2023/11/18 09:01:31;;;;;;;9.30;7.60;;;;;;;2.26;100.00;100736.50;88207;274;136434;-65
2023/11/18 09:03:37;;;;;;;6.40;5.70;;;;;;;2.25;100.00;100748.00;88531;278;22630;-74
2023/11/18 09:05:42;;;;;;;7.70;6.60;;;;;;;2.22;100.00;100739.78;88281;275;136327;-71
2023/11/18 09:07:48;;;;;;;7.90;6.50;;;;;;;2.18;100.00;100737.27;88389;275;25146;-71
2023/11/18 09:09:52;;;;;;;7.20;6.50;;;;;;;2.16;100.00;100734.49;88394;274;137344;-73
2023/11/18 09:11:58;;;;;;;8.10;6.80;;;;;;;2.18;100.00;100738.38;88345;275;23755;-70
2023/11/18 09:14:00;;;;;;;7.90;7.00;;;;;;;2.21;100.00;100730.05;88257;277;137301;-68
2023/11/18 09:16:08;;;;;;;8.40;6.90;;;;;;;2.25;100.00;100739.41;89393;273;136793;-71
2023/11/18 09:18:11;;;;;;;8.60;7.70;;;;;;;2.27;100.00;100731.11;88281;282;24093;-71
2023/11/18 09:20:13;;;;;;;8.00;7.20;;;;;;;2.31;100.00;100728.52;88334;280;136919;-73
2023/11/18 09:22:19;;;;;;;8.50;7.70;;;;;;;2.32;100.00;100729.81;88522;280;22527;-71
2023/11/18 09:24:24;;;;;;;9.90;7.50;;;;;;;2.34;100.00;100731.98;88362;272;136869;-69
2023/11/18 09:26:29;;;;;;;9.30;8.00;;;;;;;2.37;100.00;100722.10;88427;274;22537;-70
2023/11/18 09:28:32;;;;;;;7.30;6.60;;;;;;;2.40;100.00;100715.20;88186;274;136385;-71